Current | Radar | Forecast | Satellite
Updated: 1:30 AM EDT on April 23, 2017
Observed at Highland Ave Winchester, Winchester, Massachusetts
Temperature 41.7°F / 5.4°C
Windchill 42°F / 5°C
Humidity 99%
Dew Point 42°F / 5°C
Wind South at 0.0 mph / 0.0 km/h
Wind Gust 0.0 mph / 0.0 km/h
Pressure 30.00 in / 1016 hPa (Rising)
Conditions Fog
Visibility 0.2 miles / 0.4 kilometers
UV 0.0 out of 16
Clouds
Yesterday's Maximum 44.8°F / 7.1°C
Yesterday's Minimum 41.9°F / 5.5°C
Sunrise5:50 AM EDT
Sunset7:35 PM EDT
Moon Rise4:26 AM EDT
Moon Set4:19 PM EDT
Moon PhaseMoon Phase
Waning Crescent
Raw METARSPECI KBED 230520Z AUTO 00000KT 1/4SM R11/4000VP6000FT FG VV003 03/02 A3000 RMK AO2 T00280017

Winchester, MA

Current Radar

Radar Map
Zoom into radar image
Zoom into animated radar image


Click here for Marine Information
Scientific forecaster discussion (NWS)

Units: English | Metric

Find the Weather for any City, State or Zipcode, or Country:

U.S. State List | Severe Weather | Tropical Storms | Ski Conditions
United States | Canada | Central America | South America | Asia | Europe | Australia | Africa | Islands

Weather Underground

© Copyright 2017
The Weather Company, LLC